Tuesday, January 16, 2018, 6:53 AM EST
Back to Local

KGED, Georgetown Sussex Co Airport

Location: Georgetown, DE, United States Lat: 38.683
Local Time: 6:53 AM EST (11:53 GMT) Lon: -75.367
Time Zone: US/Eastern Elev: 52 ft

Show me the last for .
Show Decoded

2018-01-16 06:37 METAR KGED 161137Z AUTO 00000KT 10SM BKN029 M03/M04 A3047 RMK AO2 T10281044 =
2018-01-16 05:54 METAR KGED 161054Z AUTO 00000KT 10SM BKN030 M02/M04 A3048 RMK AO2 SLP320 I1000
                 T10221039 =
2018-01-16 04:54 METAR KGED 160954Z AUTO 00000KT 9SM BKN030 M03/M04 A3046 RMK AO2 SLP314
                 T10331044 =
2018-01-16 03:54 METAR KGED 160854Z AUTO 33003KT 10SM CLR M03/M04 A3046 RMK AO2 SLP313 I1000
                 I3000 T10281039 53003 =
2018-01-16 02:54 METAR KGED 160754Z AUTO 00000KT 10SM CLR M02/M04 A3045 RMK AO2 SLP312 I1000
                 T10221039 =
2018-01-16 01:54 METAR KGED 160654Z AUTO 00000KT 7SM SCT031 M03/M04 A3044 RMK AO2 SLP308 I1000
                 T10281044 =
2018-01-16 00:54 METAR KGED 160554Z AUTO 00000KT 5SM BR CLR M03/M04 A3045 RMK AO2 SLP310 I1000
                 I6000 T10331044 10006 21033 56009 =
2018-01-15 23:54 METAR KGED 160454Z AUTO 00000KT 9SM CLR M02/M03 A3045 RMK AO2 SLP312 I1000
                 T10171028 400111094 =
2018-01-15 23:18 METAR KGED 160418Z AUTO 02003KT 10SM SCT024 M01/M03 A3046 RMK AO2 T10111028 =
2018-01-15 22:54 METAR KGED 160354Z AUTO 03004KT 10SM BKN023 M01/M02 A3046 RMK AO2 SLP316
                 T10111022 =
2018-01-15 22:20 METAR KGED 160320Z AUTO 02003KT 10SM BKN022 M01/M03 A3048 RMK AO2 T10111028 =
2018-01-15 21:54 METAR KGED 160254Z AUTO 03003KT 10SM FEW021 M01/M02 A3048 RMK AO2 SLP320
                 T10061022 58003 =
2018-01-15 21:41 METAR KGED 160241Z AUTO 03004KT 10SM SCT021 M01/M03 A3047 RMK AO2 T10111028 =
2018-01-15 20:54 METAR KGED 160154Z AUTO 03004KT 10SM FEW010 OVC020 00/M02 A3050 RMK AO2 SLP327
                 T00001022 =
2018-01-15 20:38 METAR KGED 160138Z AUTO 04004KT 10SM SCT010 OVC018 00/M02 A3049 RMK AO2
                 T00001022 =
2018-01-15 19:54 METAR KGED 160054Z AUTO 04007KT 10SM OVC010 01/M02 A3048 RMK AO2 SLP323
                 T00061022 =
2018-01-15 18:54 METAR KGED 152354Z AUTO 05008KT 10SM OVC010 00/M02 A3048 RMK AO2 SLP323 60000
                 T00001022 10011 21006 50002 =
2018-01-15 17:54 METAR KGED 152254Z AUTO 06009KT 10SM OVC012 01/M02 A3050 RMK AO2 SLP330
                 T00061022 =
2018-01-15 16:54 METAR KGED 152154Z AUTO 05010KT 10SM OVC013 01/M02 A3049 RMK AO2 SLP324
                 T00061017 =
2018-01-15 15:54 METAR KGED 152054Z AUTO 04008KT 10SM OVC013 01/M02 A3048 RMK AO2 PRESRR SLP321
                 60000 T00111017 55000 =
2018-01-15 14:54 METAR KGED 151954Z AUTO 02005KT 7SM OVC011 01/M02 A3047 RMK AO2 SNE49 SLP320
                 P0000 T00061017 =
2018-01-15 14:44 METAR KGED 151944Z AUTO 02006KT 4SM -SN BR OVC011 00/M02 A3047 RMK AO2 P0000
                 T00001017 =
2018-01-15 14:36 METAR KGED 151936Z AUTO 01004KT 2 1/2SM -SN BR OVC011 00/M02 A3047 RMK AO2 P0000
                 T00001017 =
2018-01-15 14:23 METAR KGED 151923Z AUTO 35005KT 1 3/4SM -SN BR OVC010 00/M02 A3048 RMK AO2 P0000
                 T00001017 =
2018-01-15 14:15 METAR KGED 151915Z AUTO 01005KT 2SM -SN BR OVC010 00/M02 A3047 RMK AO2 P0000
                 T00001017 =
2018-01-15 13:54 METAR KGED 151854Z AUTO 01004KT 1 1/2SM -SN BR OVC010 00/M02 A3047 RMK AO2
                 SLP317 P0000 T00001022 =
2018-01-15 13:38 METAR KGED 151838Z AUTO 36005KT 1 1/2SM -SN BR OVC010 M01/M03 A3047 RMK AO2
                 P0000 T10061028 =
2018-01-15 13:10 METAR KGED 151810Z AUTO 36004KT 2 1/2SM -SN OVC012 M01/M03 A3048 RMK AO2 P0000
                 T10061033 =
2018-01-15 13:00 METAR KGED 151800Z AUTO 02004KT 1 3/4SM -SN OVC012 M01/M03 A3048 RMK AO2 P0000
                 T10061033 =
2018-01-15 12:54 METAR KGED 151754Z AUTO 36007KT 3SM -SN OVC012 M01/M04 A3048 RMK AO2 SNB54
                 SLP321 P0000 60000 T10061039 10006 21044 58029 =
2018-01-15 11:54 METAR KGED 151654Z AUTO 02010KT 10SM BKN014 BKN024 OVC047 01/M04 A3051 RMK AO2
                 SLP332 T00061039 =
2018-01-15 11:06 METAR KGED 151606Z AUTO 03009KT 6SM HZ SCT027 OVC039 M01/M04 A3054 RMK AO2
                 T10061044 =
2018-01-15 10:54 METAR KGED 151554Z AUTO 01007KT 9SM BKN027 OVC039 M01/M05 A3055 RMK AO2 SLP347
                 T10061050 =
2018-01-15 09:54 METAR KGED 151454Z AUTO 02008KT 10SM FEW013 OVC022 M02/M06 A3057 RMK AO2 SLP350
                 T10221061 53003 =
2018-01-15 08:54 METAR KGED 151354Z AUTO 02009G18KT 10SM OVC028 M03/M07 A3056 RMK AO2 SLP347
                 T10281067 =
2018-01-15 08:42 METAR KGED 151342Z AUTO 02009KT 10SM SCT012 OVC028 M03/M07 A3056 RMK AO2
                 T10331072 =
2018-01-15 07:54 METAR KGED 151254Z AUTO 03011KT 10SM OVC012 M04/M08 A3055 RMK AO2 SLP345
                 T10391078 =
2018-01-15 07:05 METAR KGED 151205Z AUTO 03012KT 10SM OVC014 M04/M09 A3055 RMK AO2 T10441089 =
2018-01-15 06:54 METAR KGED 151154Z AUTO 03012G18KT 10SM OVC015 M04/M09 A3056 RMK AO2 SLP347
                 T10441089 11044 21083 56010 =

Support USWX by starting your Amazon purchase here.